createdAt,value
2017-09-16T00:00:14.290Z,5.50
2017-09-16T00:01:14.289Z,7.00
2017-09-16T00:02:14.322Z,4.60
2017-09-16T00:03:14.328Z,5.30
2017-09-16T00:04:14.347Z,5.40
2017-09-16T00:05:14.364Z,5.20
2017-09-16T00:06:14.381Z,4.00
2017-09-16T00:07:14.406Z,6.60
2017-09-16T00:08:14.419Z,12.50
2017-09-16T00:09:14.436Z,4.00
2017-09-16T00:10:14.461Z,7.30
2017-09-16T00:11:14.473Z,6.20
2017-09-16T00:12:14.490Z,4.20
2017-09-16T00:13:14.510Z,8.20
2017-09-16T00:14:14.525Z,8.80
2017-09-16T00:15:14.544Z,5.70
2017-09-16T00:16:14.573Z,4.90
2017-09-16T00:17:14.578Z,6.80
2017-09-16T00:18:14.606Z,4.80
2017-09-16T00:19:14.616Z,5.80
2017-09-16T00:20:14.640Z,6.00
2017-09-16T00:21:14.651Z,5.30
2017-09-16T00:22:14.673Z,11.40
2017-09-16T00:23:14.688Z,7.90
2017-09-16T00:24:14.708Z,6.40
2017-09-16T00:25:14.729Z,7.70
2017-09-16T00:26:14.743Z,4.10
2017-09-16T00:27:14.761Z,6.70
2017-09-16T00:28:14.775Z,5.40
2017-09-16T00:29:14.801Z,4.30
2017-09-16T00:30:14.821Z,5.40
2017-09-16T00:31:14.832Z,6.80
2017-09-16T00:32:14.855Z,5.50
2017-09-16T00:33:14.866Z,5.80
2017-09-16T00:34:14.884Z,6.70
2017-09-16T00:35:14.903Z,4.70
2017-09-16T00:36:14.919Z,9.70
2017-09-16T00:37:14.940Z,6.40
2017-09-16T00:38:14.967Z,6.70
2017-09-16T00:39:14.979Z,4.20
2017-09-16T00:40:14.993Z,10.50
2017-09-16T00:41:15.008Z,5.00
2017-09-16T00:42:15.038Z,4.60
2017-09-16T00:43:15.055Z,6.20
2017-09-16T00:44:15.063Z,4.80
2017-09-16T00:45:15.089Z,4.30
2017-09-16T00:46:15.103Z,5.10
2017-09-16T00:47:15.116Z,6.60
2017-09-16T00:48:15.140Z,7.90
2017-09-16T00:49:15.156Z,6.50
2017-09-16T00:50:15.177Z,6.40
2017-09-16T00:51:15.189Z,9.80
2017-09-16T00:52:15.217Z,5.30
2017-09-16T00:53:15.223Z,4.20
2017-09-16T00:54:15.249Z,6.00
2017-09-16T00:55:15.262Z,7.60
2017-09-16T00:56:15.283Z,7.10
2017-09-16T00:57:15.297Z,6.10
2017-09-16T00:58:15.315Z,5.90
2017-09-16T00:59:15.330Z,6.30
2017-09-16T01:00:15.351Z,8.50
2017-09-16T01:01:15.369Z,5.70
2017-09-16T01:02:15.387Z,6.60
2017-09-16T01:03:15.406Z,8.40
2017-09-16T01:04:15.420Z,7.00
2017-09-16T01:05:15.443Z,6.40
2017-09-16T01:06:15.454Z,6.20
2017-09-16T01:07:15.475Z,8.70
2017-09-16T01:08:15.500Z,6.40
2017-09-16T01:09:15.510Z,4.50
2017-09-16T01:10:15.527Z,6.10
2017-09-16T01:11:15.550Z,6.20
2017-09-16T01:12:15.570Z,4.70
2017-09-16T01:13:15.584Z,5.20
2017-09-16T01:14:15.601Z,7.70
2017-09-16T01:15:15.615Z,7.70
2017-09-16T01:16:15.636Z,6.60
2017-09-16T01:17:15.662Z,5.40
2017-09-16T01:18:15.685Z,5.10
2017-09-16T01:19:15.690Z,5.70
2017-09-16T01:20:15.703Z,4.80
2017-09-16T01:21:15.726Z,5.20
2017-09-16T01:22:15.754Z,9.20
2017-09-16T01:23:15.760Z,5.60
2017-09-16T01:24:15.781Z,6.40
2017-09-16T01:25:15.794Z,5.10
2017-09-16T01:26:15.817Z,6.20
2017-09-16T01:27:15.834Z,7.70
2017-09-16T01:28:15.856Z,7.60
2017-09-16T01:29:15.865Z,4.90
2017-09-16T01:30:15.888Z,6.90
2017-09-16T01:31:15.907Z,7.00
2017-09-16T01:32:15.921Z,4.70
2017-09-16T01:33:15.940Z,5.20
2017-09-16T01:34:15.956Z,5.30
2017-09-16T01:35:15.977Z,4.80
2017-09-16T01:36:15.991Z,4.60
2017-09-16T01:37:16.019Z,4.90
2017-09-16T01:38:16.031Z,6.30
2017-09-16T01:39:16.046Z,6.80
2017-09-16T01:40:16.068Z,4.90
2017-09-16T01:41:16.079Z,3.80
2017-09-16T01:42:16.105Z,4.40
2017-09-16T01:43:16.118Z,9.60
2017-09-16T01:44:16.134Z,7.00
2017-09-16T01:45:16.153Z,5.00
2017-09-16T01:46:16.181Z,6.00
2017-09-16T01:47:16.188Z,7.20
2017-09-16T01:48:16.209Z,3.90
2017-09-16T01:49:16.225Z,4.00
2017-09-16T01:50:16.244Z,6.10
2017-09-16T01:51:16.267Z,5.00
2017-09-16T01:52:16.285Z,6.70
2017-09-16T01:53:16.295Z,9.80
2017-09-16T01:54:16.311Z,5.30
2017-09-16T01:55:16.330Z,6.10
2017-09-16T01:56:16.350Z,5.40
2017-09-16T01:57:16.371Z,6.80
2017-09-16T01:58:16.389Z,9.90
2017-09-16T01:59:16.406Z,4.20
2017-09-16T02:00:16.433Z,4.20
2017-09-16T02:01:16.441Z,4.70
2017-09-16T02:02:16.454Z,4.50
2017-09-16T02:03:16.486Z,4.70
2017-09-16T02:04:16.493Z,9.10
2017-09-16T02:05:16.507Z,5.40
2017-09-16T02:06:16.525Z,5.00
2017-09-16T02:07:16.543Z,4.50
2017-09-16T02:08:16.565Z,5.10
2017-09-16T02:09:16.578Z,4.30
2017-09-16T02:10:16.599Z,5.70
2017-09-16T02:11:16.621Z,5.50
2017-09-16T02:12:16.642Z,5.00
2017-09-16T02:13:16.646Z,6.60
2017-09-16T02:14:16.666Z,7.30
2017-09-16T02:15:16.687Z,7.10
2017-09-16T02:16:16.707Z,9.50
2017-09-16T02:17:16.719Z,5.70
2017-09-16T02:18:16.744Z,8.50
2017-09-16T02:19:16.767Z,5.20
2017-09-16T02:20:16.793Z,5.50
2017-09-16T02:21:16.792Z,6.30
2017-09-16T02:22:16.812Z,6.20
2017-09-16T02:23:16.831Z,5.50
2017-09-16T02:24:16.842Z,7.90
2017-09-16T02:25:16.861Z,7.10
2017-09-16T02:26:16.879Z,7.20
2017-09-16T02:27:16.897Z,7.00
2017-09-16T02:28:16.932Z,8.20
2017-09-16T02:29:16.935Z,11.40
2017-09-16T02:30:16.958Z,6.70
2017-09-16T02:31:16.972Z,7.00
2017-09-16T02:32:16.983Z,8.00
2017-09-16T02:33:17.003Z,5.10
2017-09-16T02:34:17.028Z,6.00
2017-09-16T02:35:17.039Z,6.00
2017-09-16T02:36:17.057Z,6.10
2017-09-16T02:37:17.084Z,9.70
2017-09-16T02:38:17.091Z,4.60
2017-09-16T02:39:17.111Z,7.10
2017-09-16T02:40:17.129Z,12.10
2017-09-16T02:41:17.145Z,5.30
2017-09-16T02:42:17.161Z,6.60
2017-09-16T02:43:17.181Z,5.90
2017-09-16T02:44:17.193Z,5.50
2017-09-16T02:45:17.219Z,6.50
2017-09-16T02:46:17.230Z,7.00
2017-09-16T02:47:17.254Z,5.70
2017-09-16T02:48:17.271Z,8.10
2017-09-16T02:49:17.285Z,6.40
2017-09-16T02:50:17.303Z,6.00
2017-09-16T02:51:17.328Z,7.60
2017-09-16T02:52:17.345Z,6.60
2017-09-16T02:53:17.366Z,7.00
2017-09-16T02:54:17.378Z,6.60
2017-09-16T02:55:17.394Z,9.80
2017-09-16T02:56:17.410Z,7.20
2017-09-16T02:57:17.429Z,7.80
2017-09-16T02:58:17.449Z,7.60
2017-09-16T02:59:17.465Z,8.00
2017-09-16T03:00:17.477Z,11.60
2017-09-16T03:01:17.498Z,8.50
2017-09-16T03:02:17.517Z,7.40
2017-09-16T03:03:17.532Z,7.40
2017-09-16T03:04:17.547Z,7.10
2017-09-16T03:05:17.564Z,7.80
2017-09-16T03:06:17.589Z,8.70
2017-09-16T03:07:17.611Z,6.30
2017-09-16T03:08:17.622Z,6.30
2017-09-16T03:09:17.633Z,8.40
2017-09-16T03:10:17.656Z,6.90
2017-09-16T03:11:17.674Z,14.70
2017-09-16T03:12:17.689Z,7.90
2017-09-16T03:13:17.704Z,6.30
2017-09-16T03:14:17.735Z,5.60
2017-09-16T03:15:17.743Z,5.80
2017-09-16T03:16:17.764Z,5.70
2017-09-16T03:17:17.780Z,8.20
2017-09-16T03:18:17.794Z,8.60
2017-09-16T03:19:17.812Z,5.90
2017-09-16T03:20:17.830Z,9.60
2017-09-16T03:21:17.842Z,6.30
2017-09-16T03:22:17.862Z,6.20
2017-09-16T03:23:17.884Z,6.80
2017-09-16T03:24:17.903Z,6.00
2017-09-16T03:25:17.924Z,7.40
2017-09-16T03:26:17.931Z,8.10
2017-09-16T03:27:17.951Z,6.70
2017-09-16T03:28:17.970Z,9.50
2017-09-16T03:29:17.988Z,9.70
2017-09-16T03:30:18.005Z,9.00
2017-09-16T03:31:18.026Z,8.40
2017-09-16T03:32:18.041Z,5.80
2017-09-16T03:33:18.052Z,6.10
2017-09-16T03:34:18.073Z,8.50
2017-09-16T03:35:18.093Z,8.00
2017-09-16T03:36:18.111Z,8.80
2017-09-16T03:37:18.127Z,6.80
2017-09-16T03:38:18.145Z,5.70
2017-09-16T03:39:18.158Z,8.40
2017-09-16T03:40:18.177Z,7.00
2017-09-16T03:41:18.204Z,7.50
2017-09-16T03:42:18.210Z,5.80
2017-09-16T03:43:18.231Z,7.50
2017-09-16T03:44:18.249Z,8.00
2017-09-16T03:45:18.276Z,8.20
2017-09-16T03:46:18.285Z,5.70
2017-09-16T03:47:18.303Z,7.60
2017-09-16T03:48:18.318Z,6.80
2017-09-16T03:49:18.335Z,9.90
2017-09-16T03:50:18.356Z,9.90
2017-09-16T03:51:18.371Z,6.10
2017-09-16T03:52:18.393Z,9.00
2017-09-16T03:53:18.407Z,11.30
2017-09-16T03:54:18.422Z,7.80
2017-09-16T03:55:18.440Z,7.30
2017-09-16T03:56:18.460Z,9.50
2017-09-16T03:57:18.482Z,9.40
2017-09-16T03:58:18.497Z,6.30
2017-09-16T03:59:18.513Z,9.80
2017-09-16T04:00:18.530Z,9.30
2017-09-16T04:01:18.546Z,9.60
2017-09-16T04:02:18.566Z,6.60
2017-09-16T04:03:18.579Z,7.10
2017-09-16T04:04:18.600Z,9.70
2017-09-16T04:05:18.614Z,6.90
2017-09-16T04:06:18.631Z,6.60
2017-09-16T04:07:18.653Z,8.30
2017-09-16T04:08:18.666Z,7.40
2017-09-16T04:09:18.686Z,8.60
2017-09-16T04:10:18.703Z,10.60
2017-09-16T04:11:18.723Z,9.00
2017-09-16T04:12:18.739Z,8.60
2017-09-16T04:13:18.756Z,9.30
2017-09-16T04:14:18.770Z,10.50
2017-09-16T04:15:18.787Z,7.10
2017-09-16T04:16:18.811Z,7.30
2017-09-16T04:17:18.826Z,9.20
2017-09-16T04:18:18.846Z,8.50
2017-09-16T04:19:18.856Z,8.30
2017-09-16T04:20:18.877Z,6.70
2017-09-16T04:21:18.895Z,8.60
2017-09-16T04:22:18.914Z,9.70
2017-09-16T04:23:18.929Z,8.30
2017-09-16T04:24:18.946Z,8.30
2017-09-16T04:25:18.959Z,8.00
2017-09-16T04:26:18.976Z,6.80
2017-09-16T04:27:18.997Z,9.30
2017-09-16T04:28:19.016Z,8.80
2017-09-16T04:29:19.033Z,6.10
2017-09-16T04:30:19.056Z,10.70
2017-09-16T04:31:19.073Z,8.70
2017-09-16T04:32:19.084Z,9.20
2017-09-16T04:33:19.100Z,9.40
2017-09-16T04:34:19.116Z,8.70
2017-09-16T04:35:19.135Z,8.40
2017-09-16T04:36:19.153Z,12.60
2017-09-16T04:37:19.173Z,9.80
2017-09-16T04:38:19.196Z,15.40
2017-09-16T04:39:19.211Z,12.00
2017-09-16T04:40:19.222Z,12.90
2017-09-16T04:41:19.240Z,7.80
2017-09-16T04:42:19.259Z,9.00
2017-09-16T04:43:19.272Z,10.80
2017-09-16T04:44:19.296Z,17.40
2017-09-16T04:45:19.310Z,10.20
2017-09-16T04:46:19.327Z,9.30
2017-09-16T04:47:19.351Z,11.40
2017-09-16T04:48:19.361Z,15.20
2017-09-16T04:49:19.379Z,12.50
2017-09-16T04:50:19.393Z,15.00
2017-09-16T04:51:19.411Z,9.00
2017-09-16T04:52:19.449Z,13.80
2017-09-16T04:53:19.448Z,15.50
2017-09-16T04:54:19.462Z,10.30
2017-09-16T04:55:19.484Z,15.40
2017-09-16T04:56:19.500Z,12.40
2017-09-16T04:57:19.513Z,15.70
2017-09-16T04:58:19.532Z,14.00
2017-09-16T04:59:19.550Z,21.30
2017-09-16T05:00:19.567Z,36.60
2017-09-16T05:01:19.580Z,34.90
2017-09-16T05:02:19.602Z,32.20
2017-09-16T05:03:19.621Z,23.80
2017-09-16T05:04:19.645Z,29.90
2017-09-16T05:05:19.654Z,33.70
2017-09-16T05:06:19.671Z,30.30
2017-09-16T05:07:19.691Z,34.20
2017-09-16T05:08:19.708Z,35.00
2017-09-16T05:09:19.719Z,31.00
2017-09-16T05:10:19.739Z,36.20
2017-09-16T05:11:19.755Z,38.30
2017-09-16T05:12:19.772Z,42.30
2017-09-16T05:13:19.797Z,39.40
2017-09-16T05:14:19.809Z,44.90
2017-09-16T05:15:19.832Z,47.00
2017-09-16T05:16:19.841Z,38.80
2017-09-16T05:17:19.866Z,48.50
2017-09-16T05:18:19.879Z,47.80
2017-09-16T05:19:19.894Z,57.90
2017-09-16T05:20:19.917Z,53.80
2017-09-16T05:21:19.924Z,53.80
2017-09-16T05:22:19.947Z,47.70
2017-09-16T05:23:19.966Z,58.70
2017-09-16T05:24:19.986Z,55.60
2017-09-16T05:25:19.997Z,62.60
2017-09-16T05:26:20.018Z,59.30
2017-09-16T05:27:20.035Z,79.60
2017-09-16T05:28:20.049Z,74.70
2017-09-16T05:29:20.073Z,63.70
2017-09-16T05:30:20.095Z,69.40
2017-09-16T05:31:20.103Z,61.90
2017-09-16T05:32:20.123Z,58.80
2017-09-16T05:33:20.288Z,66.50
2017-09-16T05:34:20.167Z,56.10
2017-09-16T05:35:20.182Z,50.70
2017-09-16T05:36:20.190Z,56.20
2017-09-16T05:37:20.214Z,47.80
2017-09-16T05:38:20.227Z,46.20
2017-09-16T05:39:20.240Z,42.10
2017-09-16T05:40:20.258Z,45.00
2017-09-16T05:41:20.275Z,41.50
2017-09-16T05:42:20.293Z,42.30
2017-09-16T05:43:20.310Z,39.80
2017-09-16T05:44:20.328Z,37.10
2017-09-16T05:45:20.346Z,37.90
2017-09-16T05:46:20.366Z,35.80
2017-09-16T05:47:20.380Z,33.70
2017-09-16T05:48:20.402Z,37.40
2017-09-16T05:49:20.415Z,32.10
2017-09-16T05:50:20.437Z,32.60
2017-09-16T05:51:20.452Z,29.20
2017-09-16T05:52:20.472Z,36.30
2017-09-16T05:53:20.490Z,31.90
2017-09-16T05:54:20.505Z,33.10
2017-09-16T05:55:20.528Z,35.90
2017-09-16T05:56:20.542Z,33.10
2017-09-16T05:57:20.558Z,32.10
2017-09-16T05:58:20.580Z,36.20
2017-09-16T05:59:20.604Z,45.60
2017-09-16T06:00:20.616Z,31.60
2017-09-16T06:01:20.634Z,31.60
2017-09-16T06:02:20.655Z,34.80
2017-09-16T06:03:20.675Z,34.80
2017-09-16T06:04:20.688Z,32.80
2017-09-16T06:05:20.706Z,35.50
2017-09-16T06:06:20.721Z,49.50
2017-09-16T06:07:20.748Z,34.90
2017-09-16T06:08:20.767Z,32.50
2017-09-16T06:09:20.780Z,30.60
2017-09-16T06:10:20.792Z,33.00
2017-09-16T06:11:20.815Z,32.60
2017-09-16T06:12:20.828Z,32.10
2017-09-16T06:13:20.855Z,34.10
2017-09-16T06:14:20.868Z,36.00
2017-09-16T06:15:20.885Z,32.40
2017-09-16T06:16:20.904Z,31.40
2017-09-16T06:17:20.924Z,36.30
2017-09-16T06:18:20.941Z,30.30
2017-09-16T06:19:20.958Z,32.40
2017-09-16T06:20:20.979Z,32.20
2017-09-16T06:21:20.992Z,31.30
2017-09-16T06:22:21.011Z,33.00
2017-09-16T06:23:21.030Z,31.30
2017-09-16T06:24:21.052Z,32.80
2017-09-16T06:25:21.064Z,33.50
2017-09-16T06:26:21.082Z,30.10
2017-09-16T06:27:21.113Z,31.90
2017-09-16T06:28:21.133Z,36.30
2017-09-16T06:29:21.137Z,34.60
2017-09-16T06:30:21.173Z,36.70
2017-09-16T06:31:21.173Z,40.70
2017-09-16T06:32:21.196Z,34.40
2017-09-16T06:33:21.210Z,33.80
2017-09-16T06:34:21.226Z,32.80
2017-09-16T06:35:21.246Z,36.40
2017-09-16T06:36:21.263Z,36.50
2017-09-16T06:37:21.284Z,35.50
2017-09-16T06:38:21.314Z,35.60
2017-09-16T06:39:21.324Z,33.30
2017-09-16T06:40:21.349Z,32.50
2017-09-16T06:41:21.352Z,32.50
2017-09-16T06:42:21.368Z,34.40
2017-09-16T06:43:21.394Z,31.80
2017-09-16T06:44:21.407Z,32.80
2017-09-16T06:45:21.422Z,32.70
2017-09-16T06:46:21.443Z,32.80
2017-09-16T06:47:21.479Z,32.80
2017-09-16T06:48:21.476Z,32.60
2017-09-16T06:49:21.496Z,32.10
2017-09-16T06:50:21.522Z,31.20
2017-09-16T06:51:21.539Z,31.20
2017-09-16T06:52:21.559Z,32.30
2017-09-16T06:53:21.575Z,33.90
2017-09-16T06:54:21.588Z,32.80
2017-09-16T06:55:21.608Z,31.50
2017-09-16T06:56:21.633Z,35.30
2017-09-16T06:57:21.657Z,33.60
2017-09-16T06:58:21.665Z,34.10
2017-09-16T06:59:21.677Z,29.80
2017-09-16T07:00:21.713Z,31.90
2017-09-16T07:01:21.722Z,27.00
2017-09-16T07:02:21.757Z,28.50
2017-09-16T07:03:21.878Z,30.50
2017-09-16T07:04:21.777Z,27.40
2017-09-16T07:05:21.821Z,25.80
2017-09-16T07:06:21.807Z,31.90
2017-09-16T07:07:21.828Z,28.50
2017-09-16T07:08:21.917Z,25.30
2017-09-16T07:09:21.868Z,29.00
2017-09-16T07:10:21.886Z,29.60
2017-09-16T07:11:21.916Z,27.60
2017-09-16T07:12:21.946Z,30.30
2017-09-16T07:13:21.940Z,28.50
2017-09-16T07:14:21.956Z,27.70
2017-09-16T07:15:21.976Z,24.70
2017-09-16T07:16:21.995Z,24.70
2017-09-16T07:17:22.052Z,27.80
2017-09-16T07:18:22.047Z,27.20
2017-09-16T07:19:22.060Z,26.30
2017-09-16T07:20:22.074Z,28.00
2017-09-16T07:21:22.087Z,27.10
2017-09-16T07:22:22.143Z,29.00
2017-09-16T07:23:22.133Z,27.70
2017-09-16T07:24:22.144Z,24.80
2017-09-16T07:25:22.166Z,25.10
2017-09-16T07:26:22.182Z,30.20
2017-09-16T07:27:22.199Z,25.30
2017-09-16T07:28:22.220Z,25.80
2017-09-16T07:29:22.243Z,24.80
2017-09-16T07:30:22.257Z,26.60
2017-09-16T07:31:22.288Z,26.90
2017-09-16T07:32:22.301Z,28.50
2017-09-16T07:33:22.319Z,24.90
2017-09-16T07:34:22.334Z,28.10
2017-09-16T07:35:22.357Z,27.70
2017-09-16T07:36:22.380Z,28.90
2017-09-16T07:37:22.395Z,28.20
2017-09-16T07:38:22.410Z,29.00
2017-09-16T07:39:22.432Z,26.00
2017-09-16T07:40:22.456Z,25.30
2017-09-16T07:41:22.478Z,26.80
2017-09-16T07:42:22.486Z,27.10
2017-09-16T07:43:22.523Z,27.00
2017-09-16T07:44:22.534Z,26.80
2017-09-16T07:45:22.548Z,25.40
2017-09-16T07:46:22.569Z,23.80
2017-09-16T07:47:22.589Z,24.20
2017-09-16T07:48:22.611Z,26.90
2017-09-16T07:49:22.624Z,24.60
2017-09-16T07:50:22.658Z,26.80
2017-09-16T07:51:22.669Z,22.20
2017-09-16T07:52:22.693Z,23.30
2017-09-16T07:53:22.703Z,26.00
2017-09-16T07:54:22.728Z,24.20
2017-09-16T07:55:22.744Z,24.30
2017-09-16T07:56:22.762Z,27.80
2017-09-16T07:57:22.787Z,24.20
2017-09-16T07:58:22.810Z,24.00
2017-09-16T07:59:22.820Z,22.60
2017-09-16T08:00:22.842Z,22.80
2017-09-16T08:01:22.869Z,22.00
2017-09-16T08:02:22.883Z,22.20
2017-09-16T08:03:22.900Z,20.50
2017-09-16T08:04:22.927Z,23.00
2017-09-16T08:05:22.956Z,22.00
2017-09-16T08:06:22.968Z,19.30
2017-09-16T08:07:22.989Z,19.40
2017-09-16T08:08:23.007Z,20.80
2017-09-16T08:09:23.021Z,19.80
2017-09-16T08:10:23.049Z,20.60
2017-09-16T08:11:23.069Z,19.10
2017-09-16T08:12:23.084Z,20.50
2017-09-16T08:13:23.108Z,20.60
2017-09-16T08:14:23.130Z,18.10
2017-09-16T08:15:23.151Z,19.00
2017-09-16T08:16:23.169Z,18.10
2017-09-16T08:17:23.190Z,20.50
2017-09-16T08:18:23.226Z,17.60
2017-09-16T08:19:23.235Z,16.60
2017-09-16T08:20:23.272Z,16.90
2017-09-16T08:21:23.283Z,20.50
2017-09-16T08:22:23.296Z,17.70
2017-09-16T08:23:23.325Z,18.60
2017-09-16T08:24:23.340Z,17.60
2017-09-16T08:25:23.363Z,17.80
2017-09-16T08:26:23.389Z,19.00
2017-09-16T08:27:23.409Z,19.40
2017-09-16T08:28:23.422Z,18.50
2017-09-16T08:29:23.450Z,20.50
2017-09-16T08:30:23.464Z,18.70
2017-09-16T08:31:23.490Z,17.50
2017-09-16T08:32:23.519Z,19.60
2017-09-16T08:33:23.532Z,17.20
2017-09-16T08:34:23.568Z,16.90
2017-09-16T08:35:23.590Z,16.90
2017-09-16T08:36:23.607Z,17.70
2017-09-16T08:37:23.620Z,18.00
2017-09-16T08:38:23.637Z,19.60
2017-09-16T08:39:23.660Z,18.60
2017-09-16T08:40:23.687Z,21.10
2017-09-16T08:41:23.700Z,17.50
2017-09-16T08:42:23.723Z,15.80
2017-09-16T08:43:23.768Z,18.40
2017-09-16T08:44:23.763Z,18.10
2017-09-16T08:45:23.788Z,14.80
2017-09-16T08:46:23.810Z,19.00
2017-09-16T08:47:23.827Z,14.70
2017-09-16T08:48:23.847Z,17.40
2017-09-16T08:49:23.876Z,15.80
2017-09-16T08:50:23.889Z,17.60
2017-09-16T08:51:23.910Z,20.70
2017-09-16T08:52:23.937Z,17.30
2017-09-16T08:53:23.953Z,19.30
2017-09-16T08:54:23.979Z,17.70
2017-09-16T08:55:23.997Z,16.60
2017-09-16T08:56:24.023Z,18.40
2017-09-16T08:57:24.035Z,19.00
2017-09-16T08:58:24.064Z,17.80
2017-09-16T08:59:24.079Z,18.30
2017-09-16T09:00:24.104Z,15.80
2017-09-16T09:01:24.123Z,18.40
2017-09-16T09:02:24.151Z,18.20
2017-09-16T09:03:24.168Z,18.00
2017-09-16T09:04:24.192Z,17.50
2017-09-16T09:05:24.216Z,17.40
2017-09-16T09:06:24.228Z,19.80
2017-09-16T09:07:24.248Z,18.80
2017-09-16T09:08:24.266Z,17.30
2017-09-16T09:09:24.417Z,13.20
2017-09-16T09:10:24.306Z,15.10
2017-09-16T09:11:24.343Z,19.60
2017-09-16T09:12:24.360Z,15.20
2017-09-16T09:13:24.380Z,19.30
2017-09-16T09:14:24.396Z,16.60
2017-09-16T09:15:24.419Z,18.60
2017-09-16T09:16:24.442Z,16.20
2017-09-16T09:17:24.449Z,15.50
2017-09-16T09:18:24.483Z,17.70
2017-09-16T09:19:24.492Z,16.60
2017-09-16T09:20:24.525Z,17.70
2017-09-16T09:21:24.541Z,16.10
2017-09-16T09:22:24.557Z,16.00
2017-09-16T09:23:24.586Z,15.90
2017-09-16T09:24:24.601Z,15.30
2017-09-16T09:25:24.623Z,20.90
2017-09-16T09:26:24.649Z,15.80
2017-09-16T09:27:24.666Z,15.70
2017-09-16T09:28:24.685Z,14.90
2017-09-16T09:29:24.708Z,15.70
2017-09-16T09:30:24.726Z,14.30
2017-09-16T09:31:24.750Z,15.00
2017-09-16T09:32:24.774Z,17.40
2017-09-16T09:33:24.807Z,14.10
2017-09-16T09:34:24.812Z,13.70
2017-09-16T09:35:24.838Z,19.10
2017-09-16T09:36:24.858Z,14.20
2017-09-16T09:37:24.878Z,13.10
2017-09-16T09:38:24.901Z,14.10
2017-09-16T09:39:24.917Z,11.90
2017-09-16T09:40:24.943Z,13.40
2017-09-16T09:41:24.967Z,11.90
2017-09-16T09:42:24.988Z,13.60
2017-09-16T09:43:25.010Z,12.00
2017-09-16T09:44:25.034Z,12.80
2017-09-16T09:45:25.060Z,13.10
2017-09-16T09:46:25.198Z,14.80
2017-09-16T09:47:25.092Z,16.20
2017-09-16T09:48:25.116Z,14.80
2017-09-16T09:49:25.143Z,14.00
2017-09-16T09:50:25.165Z,12.40
2017-09-16T09:51:25.181Z,14.00
2017-09-16T09:52:25.205Z,11.70
2017-09-16T09:53:25.226Z,13.30
2017-09-16T09:54:25.249Z,14.20
2017-09-16T09:55:25.271Z,11.60
2017-09-16T09:56:25.300Z,15.30
2017-09-16T09:57:25.316Z,13.30
2017-09-16T09:58:25.337Z,14.60
2017-09-16T09:59:25.371Z,13.80
2017-09-16T10:00:25.376Z,14.40
2017-09-16T10:01:25.400Z,14.50
2017-09-16T10:02:25.432Z,12.10
2017-09-16T10:03:25.448Z,13.30
2017-09-16T10:04:25.471Z,15.30
2017-09-16T10:05:25.494Z,15.50
2017-09-16T10:06:25.518Z,14.40
2017-09-16T10:07:25.540Z,13.90
2017-09-16T10:08:25.553Z,14.70
2017-09-16T10:09:25.581Z,15.50
2017-09-16T10:10:25.601Z,9.70
2017-09-16T10:11:25.620Z,9.40
2017-09-16T10:12:25.650Z,12.00
2017-09-16T10:13:25.672Z,10.00
2017-09-16T10:14:25.685Z,11.20
2017-09-16T10:15:25.713Z,15.00
2017-09-16T10:16:25.733Z,10.40
2017-09-16T10:17:25.757Z,13.20
2017-09-16T10:18:25.778Z,10.40
2017-09-16T10:19:25.801Z,12.20
2017-09-16T10:20:25.825Z,9.80
2017-09-16T10:21:25.849Z,10.90
2017-09-16T10:22:25.874Z,11.10
2017-09-16T10:23:25.899Z,10.80
2017-09-16T10:24:25.915Z,12.00
2017-09-16T10:25:25.942Z,11.10
2017-09-16T10:26:25.967Z,12.30
2017-09-16T10:27:25.990Z,10.70
2017-09-16T10:28:26.005Z,12.20
2017-09-16T10:29:26.034Z,8.10
2017-09-16T10:30:26.049Z,11.20
2017-09-16T10:31:26.078Z,10.00
2017-09-16T10:32:26.101Z,12.10
2017-09-16T10:33:26.118Z,12.60
2017-09-16T10:34:26.145Z,11.20
2017-09-16T10:35:26.166Z,9.30
2017-09-16T10:36:26.185Z,15.70
2017-09-16T10:37:26.222Z,11.10
2017-09-16T10:38:26.246Z,13.90
2017-09-16T10:39:26.261Z,9.90
2017-09-16T10:40:26.277Z,11.20
2017-09-16T10:41:26.300Z,10.40
2017-09-16T10:42:26.326Z,11.80
2017-09-16T10:43:26.352Z,10.50
2017-09-16T10:44:26.390Z,9.00
2017-09-16T10:45:26.393Z,12.40
2017-09-16T10:46:26.418Z,11.60
2017-09-16T10:47:26.438Z,16.60
2017-09-16T10:48:26.464Z,13.90
2017-09-16T10:49:26.489Z,10.70
2017-09-16T10:50:26.511Z,13.90
2017-09-16T10:51:26.534Z,14.30
2017-09-16T10:52:26.554Z,10.40
2017-09-16T10:53:26.577Z,8.70
2017-09-16T10:54:26.596Z,14.40
2017-09-16T10:55:26.628Z,10.10
2017-09-16T10:56:26.648Z,9.10
2017-09-16T10:57:26.668Z,9.00
2017-09-16T10:58:26.687Z,9.60
2017-09-16T10:59:26.714Z,8.90
2017-09-16T11:00:26.735Z,9.50
2017-09-16T11:01:26.755Z,10.20
2017-09-16T11:02:26.778Z,12.10
2017-09-16T11:03:26.806Z,9.30
2017-09-16T11:04:26.820Z,10.40
2017-09-16T11:05:26.842Z,11.70
2017-09-16T11:06:26.865Z,11.30
2017-09-16T11:07:26.892Z,9.90
2017-09-16T11:08:26.913Z,8.20
2017-09-16T11:09:26.944Z,10.40
2017-09-16T11:10:26.961Z,7.80
2017-09-16T11:11:26.980Z,8.30
2017-09-16T11:12:27.001Z,8.50
2017-09-16T11:13:27.021Z,9.20
2017-09-16T11:14:27.044Z,11.40
2017-09-16T11:15:27.079Z,8.80
2017-09-16T11:16:27.088Z,10.80
2017-09-16T11:17:27.115Z,9.50
2017-09-16T11:18:27.136Z,12.40
2017-09-16T11:19:27.166Z,10.00
2017-09-16T11:20:27.175Z,10.10
2017-09-16T11:21:27.211Z,8.70
2017-09-16T11:22:27.225Z,8.90
2017-09-16T11:23:27.264Z,7.20
2017-09-16T11:24:27.265Z,17.20
2017-09-16T11:25:27.295Z,8.10
2017-09-16T11:26:27.317Z,9.60
2017-09-16T11:27:27.339Z,8.50
2017-09-16T11:28:27.355Z,7.70
2017-09-16T11:29:27.374Z,10.90
2017-09-16T11:30:27.397Z,8.20
2017-09-16T11:31:27.425Z,6.90
2017-09-16T11:32:27.476Z,8.00
2017-09-16T11:33:27.466Z,8.20
2017-09-16T11:34:27.485Z,6.70
2017-09-16T11:35:27.510Z,8.30
2017-09-16T11:36:27.531Z,4.80
2017-09-16T11:37:27.554Z,8.30
2017-09-16T11:38:27.578Z,6.30
2017-09-16T11:39:27.604Z,9.80
2017-09-16T11:40:27.629Z,10.60
2017-09-16T11:41:27.651Z,11.20
2017-09-16T11:42:27.683Z,8.50
2017-09-16T11:43:27.703Z,11.40
2017-09-16T11:44:27.716Z,10.10
2017-09-16T11:45:27.732Z,6.90
2017-09-16T11:46:27.760Z,8.40
2017-09-16T11:47:27.781Z,6.30
2017-09-16T11:48:27.807Z,8.30
2017-09-16T11:49:27.830Z,11.30
2017-09-16T11:50:27.851Z,7.20
2017-09-16T11:51:27.879Z,10.00
2017-09-16T11:52:27.897Z,10.10
2017-09-16T11:53:27.918Z,6.90
2017-09-16T11:54:27.946Z,7.10
2017-09-16T11:55:27.975Z,9.30
2017-09-16T11:56:27.989Z,7.80
2017-09-16T11:57:28.009Z,8.80
2017-09-16T11:58:28.034Z,6.60
2017-09-16T11:59:28.059Z,7.20
2017-09-16T12:00:28.082Z,5.10
2017-09-16T12:01:28.110Z,7.90
2017-09-16T12:02:28.136Z,6.90
2017-09-16T12:03:28.147Z,8.90
2017-09-16T12:04:28.175Z,8.80
2017-09-16T12:05:28.198Z,5.20
2017-09-16T12:06:28.230Z,9.50
2017-09-16T12:07:28.243Z,7.90
2017-09-16T12:08:28.270Z,5.30
2017-09-16T12:09:28.289Z,6.30
2017-09-16T12:10:28.316Z,7.60
2017-09-16T12:11:28.338Z,4.00
2017-09-16T12:12:28.365Z,7.80
2017-09-16T12:13:28.382Z,5.20
2017-09-16T12:14:28.418Z,4.80
2017-09-16T12:15:28.429Z,7.00
2017-09-16T12:16:28.463Z,4.90
2017-09-16T12:17:28.486Z,5.50
2017-09-16T12:18:28.497Z,6.00
2017-09-16T12:19:28.520Z,11.60
2017-09-16T12:20:28.547Z,7.40
2017-09-16T12:21:28.578Z,7.30
2017-09-16T12:22:28.588Z,14.70
2017-09-16T12:23:28.608Z,14.10
2017-09-16T12:24:28.635Z,11.30
2017-09-16T12:25:28.658Z,12.90
2017-09-16T12:26:28.674Z,7.90
2017-09-16T12:27:28.696Z,8.00
2017-09-16T12:28:28.724Z,5.20
2017-09-16T12:29:28.748Z,5.10
2017-09-16T12:30:28.777Z,6.50
2017-09-16T12:31:28.797Z,6.60
2017-09-16T12:32:28.817Z,6.30
2017-09-16T12:33:28.832Z,9.00
2017-09-16T12:34:28.858Z,5.40
2017-09-16T12:35:28.881Z,8.00
2017-09-16T12:36:28.902Z,9.40
2017-09-16T12:37:28.927Z,7.00
2017-09-16T12:38:28.966Z,8.40
2017-09-16T12:39:28.978Z,7.30
2017-09-16T12:40:29.000Z,6.90
2017-09-16T12:41:29.018Z,6.60
2017-09-16T12:42:29.040Z,7.10
2017-09-16T12:43:29.067Z,5.30
2017-09-16T12:44:29.090Z,6.30
2017-09-16T12:45:29.106Z,4.20
2017-09-16T12:46:29.131Z,5.50
2017-09-16T12:47:29.167Z,6.10
2017-09-16T12:48:29.186Z,7.60
2017-09-16T12:49:29.207Z,8.70
2017-09-16T12:50:29.223Z,6.60
2017-09-16T12:51:29.259Z,6.60
2017-09-16T12:52:29.265Z,4.10
2017-09-16T12:53:29.299Z,5.90
2017-09-16T12:54:29.322Z,3.90
2017-09-16T12:55:29.353Z,5.20
2017-09-16T12:56:29.362Z,5.30
2017-09-16T12:57:29.398Z,4.60
2017-09-16T12:58:29.404Z,6.90
2017-09-16T12:59:29.435Z,5.70
2017-09-16T13:00:29.449Z,7.20
2017-09-16T13:01:29.477Z,4.30
2017-09-16T13:02:29.502Z,9.00
2017-09-16T13:03:29.530Z,8.80
2017-09-16T13:04:29.545Z,6.20
2017-09-16T13:05:29.562Z,5.30